sensor_id;sensor_type;location;lat;lon;timestamp;P1;durP1;ratioP1;P2;durP2;ratioP2
46391;SDS011;32098;49.448;7.904;2022-08-11T00:02:25;3.83;;;3.47;;
46391;SDS011;32098;49.448;7.904;2022-08-11T00:05:05;4.32;;;3.03;;
46391;SDS011;32098;49.448;7.904;2022-08-11T00:07:41;3.92;;;3.50;;
46391;SDS011;32098;49.448;7.904;2022-08-11T00:10:13;3.65;;;3.33;;
46391;SDS011;32098;49.448;7.904;2022-08-11T00:12:50;3.60;;;3.30;;
46391;SDS011;32098;49.448;7.904;2022-08-11T00:15:23;4.40;;;3.53;;
46391;SDS011;32098;49.448;7.904;2022-08-11T00:17:58;4.07;;;3.67;;
46391;SDS011;32098;49.448;7.904;2022-08-11T00:20:33;3.13;;;2.85;;
46391;SDS011;32098;49.448;7.904;2022-08-11T00:23:05;3.95;;;3.47;;
46391;SDS011;32098;49.448;7.904;2022-08-11T00:25:37;3.78;;;3.10;;
46391;SDS011;32098;49.448;7.904;2022-08-11T00:28:25;3.95;;;3.50;;
46391;SDS011;32098;49.448;7.904;2022-08-11T00:30:52;4.00;;;3.40;;
46391;SDS011;32098;49.448;7.904;2022-08-11T00:33:21;4.10;;;3.72;;
46391;SDS011;32098;49.448;7.904;2022-08-11T00:36:11;4.63;;;3.60;;
46391;SDS011;32098;49.448;7.904;2022-08-11T00:38:42;4.15;;;3.75;;
46391;SDS011;32098;49.448;7.904;2022-08-11T00:41:19;4.25;;;3.40;;
46391;SDS011;32098;49.448;7.904;2022-08-11T00:43:50;4.00;;;3.70;;
46391;SDS011;32098;49.448;7.904;2022-08-11T00:52:24;5.53;;;3.80;;
46391;SDS011;32098;49.448;7.904;2022-08-11T01:00:23;3.95;;;3.60;;
46391;SDS011;32098;49.448;7.904;2022-08-11T01:03:09;4.20;;;3.83;;
46391;SDS011;32098;49.448;7.904;2022-08-11T01:50:39;5.22;;;4.65;;
46391;SDS011;32098;49.448;7.904;2022-08-11T01:54:01;5.45;;;4.63;;
46391;SDS011;32098;49.448;7.904;2022-08-11T02:02:04;4.90;;;4.40;;
46391;SDS011;32098;49.448;7.904;2022-08-11T02:11:04;5.10;;;4.43;;
46391;SDS011;32098;49.448;7.904;2022-08-11T02:16:50;4.90;;;4.50;;
46391;SDS011;32098;49.448;7.904;2022-08-11T02:26:19;4.73;;;4.33;;
46391;SDS011;32098;49.448;7.904;2022-08-11T02:28:54;6.47;;;4.82;;
46391;SDS011;32098;49.448;7.904;2022-08-11T02:34:48;6.30;;;4.50;;
46391;SDS011;32098;49.448;7.904;2022-08-11T02:42:32;5.60;;;4.70;;
46391;SDS011;32098;49.448;7.904;2022-08-11T02:48:23;5.28;;;4.72;;
46391;SDS011;32098;49.448;7.904;2022-08-11T02:54:12;5.87;;;5.00;;
46391;SDS011;32098;49.448;7.904;2022-08-11T02:57:01;5.35;;;4.85;;
46391;SDS011;32098;49.448;7.904;2022-08-11T03:15:11;5.43;;;4.47;;
46391;SDS011;32098;49.448;7.904;2022-08-11T03:18:23;5.90;;;5.13;;
46391;SDS011;32098;49.448;7.904;2022-08-11T03:21:00;6.97;;;5.27;;
46391;SDS011;32098;49.448;7.904;2022-08-11T03:23:34;5.57;;;4.97;;
46391;SDS011;32098;49.448;7.904;2022-08-11T03:35:40;5.70;;;5.20;;
46391;SDS011;32098;49.448;7.904;2022-08-11T03:38:15;5.80;;;5.30;;
46391;SDS011;32098;49.448;7.904;2022-08-11T03:49:17;4.90;;;4.37;;
46391;SDS011;32098;49.448;7.904;2022-08-11T03:51:55;5.30;;;4.80;;
46391;SDS011;32098;49.448;7.904;2022-08-11T03:56:12;5.73;;;5.23;;
46391;SDS011;32098;49.448;7.904;2022-08-11T04:22:52;5.80;;;5.30;;
46391;SDS011;32098;49.448;7.904;2022-08-11T04:26:19;5.73;;;5.20;;
46391;SDS011;32098;49.448;7.904;2022-08-11T04:31:36;5.70;;;5.10;;
46391;SDS011;32098;49.448;7.904;2022-08-11T04:37:31;6.00;;;5.57;;
46391;SDS011;32098;49.448;7.904;2022-08-11T04:49:30;6.23;;;5.63;;
46391;SDS011;32098;49.448;7.904;2022-08-11T05:02:30;6.53;;;5.63;;
46391;SDS011;32098;49.448;7.904;2022-08-11T05:17:11;5.63;;;5.13;;
46391;SDS011;32098;49.448;7.904;2022-08-11T05:19:59;5.70;;;5.10;;
46391;SDS011;32098;49.448;7.904;2022-08-11T05:22:49;5.70;;;5.20;;
46391;SDS011;32098;49.448;7.904;2022-08-11T05:25:36;6.80;;;5.17;;
46391;SDS011;32098;49.448;7.904;2022-08-11T05:28:54;5.53;;;5.03;;
46391;SDS011;32098;49.448;7.904;2022-08-11T05:31:48;4.73;;;4.37;;
46391;SDS011;32098;49.448;7.904;2022-08-11T05:34:44;8.03;;;5.20;;
46391;SDS011;32098;49.448;7.904;2022-08-11T05:37:24;5.77;;;4.97;;
46391;SDS011;32098;49.448;7.904;2022-08-11T05:40:11;5.70;;;5.10;;
46391;SDS011;32098;49.448;7.904;2022-08-11T05:42:59;5.60;;;5.20;;
46391;SDS011;32098;49.448;7.904;2022-08-11T05:46:02;5.10;;;4.70;;
46391;SDS011;32098;49.448;7.904;2022-08-11T05:48:49;4.97;;;4.50;;
46391;SDS011;32098;49.448;7.904;2022-08-11T05:51:36;5.72;;;4.75;;
46391;SDS011;32098;49.448;7.904;2022-08-11T05:54:37;5.77;;;4.73;;
46391;SDS011;32098;49.448;7.904;2022-08-11T05:57:34;4.60;;;4.20;;
46391;SDS011;32098;49.448;7.904;2022-08-11T06:00:17;4.93;;;4.53;;
46391;SDS011;32098;49.448;7.904;2022-08-11T06:02:45;5.35;;;4.85;;
46391;SDS011;32098;49.448;7.904;2022-08-11T06:05:15;6.07;;;4.97;;
46391;SDS011;32098;49.448;7.904;2022-08-11T06:07:45;5.85;;;5.18;;
46391;SDS011;32098;49.448;7.904;2022-08-11T06:10:24;6.25;;;5.38;;
46391;SDS011;32098;49.448;7.904;2022-08-11T06:13:17;5.68;;;5.15;;
46391;SDS011;32098;49.448;7.904;2022-08-11T06:15:48;8.73;;;5.32;;
46391;SDS011;32098;49.448;7.904;2022-08-11T06:18:17;7.40;;;4.68;;
46391;SDS011;32098;49.448;7.904;2022-08-11T06:20:46;5.20;;;4.72;;
46391;SDS011;32098;49.448;7.904;2022-08-11T06:23:24;6.72;;;4.60;;
46391;SDS011;32098;49.448;7.904;2022-08-11T06:26:01;7.85;;;4.22;;
46391;SDS011;32098;49.448;7.904;2022-08-11T06:28:37;4.80;;;4.40;;
46391;SDS011;32098;49.448;7.904;2022-08-11T06:31:12;5.88;;;4.30;;
46391;SDS011;32098;49.448;7.904;2022-08-11T06:36:24;5.10;;;4.40;;
46391;SDS011;32098;49.448;7.904;2022-08-11T06:39:12;4.10;;;3.80;;
46391;SDS011;32098;49.448;7.904;2022-08-11T06:46:51;5.05;;;4.10;;
46391;SDS011;32098;49.448;7.904;2022-08-11T06:49:21;4.78;;;4.00;;
46391;SDS011;32098;49.448;7.904;2022-08-11T06:52:15;5.53;;;3.85;;
46391;SDS011;32098;49.448;7.904;2022-08-11T06:55:10;5.30;;;4.00;;
46391;SDS011;32098;49.448;7.904;2022-08-11T06:58:01;4.47;;;3.88;;
46391;SDS011;32098;49.448;7.904;2022-08-11T07:00:47;4.47;;;3.75;;
46391;SDS011;32098;49.448;7.904;2022-08-11T07:03:21;4.38;;;3.45;;
46391;SDS011;32098;49.448;7.904;2022-08-11T07:08:54;3.40;;;3.10;;
46391;SDS011;32098;49.448;7.904;2022-08-11T07:11:59;3.90;;;2.90;;
46391;SDS011;32098;49.448;7.904;2022-08-11T07:14:50;3.47;;;3.28;;
46391;SDS011;32098;49.448;7.904;2022-08-11T07:17:44;4.43;;;2.65;;
46391;SDS011;32098;49.448;7.904;2022-08-11T07:20:39;5.03;;;3.00;;
46391;SDS011;32098;49.448;7.904;2022-08-11T07:23:28;4.07;;;2.60;;
46391;SDS011;32098;49.448;7.904;2022-08-11T07:26:18;6.05;;;2.90;;
46391;SDS011;32098;49.448;7.904;2022-08-11T07:29:09;4.13;;;3.10;;
46391;SDS011;32098;49.448;7.904;2022-08-11T07:31:39;3.58;;;2.60;;
46391;SDS011;32098;49.448;7.904;2022-08-11T07:36:58;3.78;;;2.50;;
46391;SDS011;32098;49.448;7.904;2022-08-11T07:39:28;2.90;;;2.67;;
46391;SDS011;32098;49.448;7.904;2022-08-11T07:41:58;3.28;;;2.60;;
46391;SDS011;32098;49.448;7.904;2022-08-11T07:44:30;2.97;;;2.47;;
46391;SDS011;32098;49.448;7.904;2022-08-11T07:47:17;4.47;;;2.40;;
46391;SDS011;32098;49.448;7.904;2022-08-11T07:50:03;5.50;;;2.72;;
46391;SDS011;32098;49.448;7.904;2022-08-11T07:52:49;4.55;;;2.50;;
46391;SDS011;32098;49.448;7.904;2022-08-11T07:55:20;3.45;;;2.40;;
46391;SDS011;32098;49.448;7.904;2022-08-11T07:58:10;3.70;;;2.50;;
46391;SDS011;32098;49.448;7.904;2022-08-11T08:01:31;2.70;;;2.50;;
46391;SDS011;32098;49.448;7.904;2022-08-11T08:04:16;3.33;;;2.75;;
46391;SDS011;32098;49.448;7.904;2022-08-11T08:07:03;3.67;;;2.60;;
46391;SDS011;32098;49.448;7.904;2022-08-11T08:09:48;4.88;;;2.75;;
46391;SDS011;32098;49.448;7.904;2022-08-11T08:12:39;3.88;;;2.58;;
46391;SDS011;32098;49.448;7.904;2022-08-11T08:15:25;4.55;;;2.97;;
46391;SDS011;32098;49.448;7.904;2022-08-11T08:18:11;4.55;;;2.75;;
46391;SDS011;32098;49.448;7.904;2022-08-11T08:20:53;5.57;;;2.60;;
46391;SDS011;32098;49.448;7.904;2022-08-11T08:23:25;3.17;;;2.65;;
46391;SDS011;32098;49.448;7.904;2022-08-11T08:26:00;3.72;;;2.78;;
46391;SDS011;32098;49.448;7.904;2022-08-11T08:28:29;4.93;;;2.88;;
46391;SDS011;32098;49.448;7.904;2022-08-11T08:30:58;4.40;;;2.92;;
46391;SDS011;32098;49.448;7.904;2022-08-11T08:33:26;2.83;;;2.47;;
46391;SDS011;32098;49.448;7.904;2022-08-11T08:35:56;3.45;;;2.47;;
46391;SDS011;32098;49.448;7.904;2022-08-11T08:38:46;2.50;;;2.30;;
46391;SDS011;32098;49.448;7.904;2022-08-11T08:41:24;2.47;;;2.28;;
46391;SDS011;32098;49.448;7.904;2022-08-11T08:43:57;2.40;;;2.20;;
46391;SDS011;32098;49.448;7.904;2022-08-11T08:46:49;3.55;;;2.28;;
46391;SDS011;32098;49.448;7.904;2022-08-11T08:49:21;4.25;;;2.50;;
46391;SDS011;32098;49.448;7.904;2022-08-11T08:51:53;5.93;;;2.22;;
46391;SDS011;32098;49.448;7.904;2022-08-11T08:54:43;3.70;;;2.25;;
46391;SDS011;32098;49.448;7.904;2022-08-11T08:57:13;5.20;;;2.30;;
46391;SDS011;32098;49.448;7.904;2022-08-11T08:59:44;2.90;;;2.38;;
46391;SDS011;32098;49.448;7.904;2022-08-11T09:02:17;3.53;;;2.40;;
46391;SDS011;32098;49.448;7.904;2022-08-11T09:05:00;3.40;;;2.20;;
46391;SDS011;32098;49.448;7.904;2022-08-11T09:07:29;4.05;;;2.30;;
46391;SDS011;32098;49.448;7.904;2022-08-11T09:10:06;4.10;;;2.58;;
46391;SDS011;32098;49.448;7.904;2022-08-11T09:12:34;2.72;;;2.42;;
46391;SDS011;32098;49.448;7.904;2022-08-11T09:15:04;3.30;;;2.55;;
46391;SDS011;32098;49.448;7.904;2022-08-11T09:17:35;2.88;;;2.55;;
46391;SDS011;32098;49.448;7.904;2022-08-11T09:20:21;3.47;;;2.25;;
46391;SDS011;32098;49.448;7.904;2022-08-11T09:22:50;2.60;;;2.22;;
46391;SDS011;32098;49.448;7.904;2022-08-11T09:26:00;4.82;;;2.25;;
46391;SDS011;32098;49.448;7.904;2022-08-11T09:28:46;2.53;;;1.95;;
46391;SDS011;32098;49.448;7.904;2022-08-11T09:31:15;3.42;;;2.28;;
46391;SDS011;32098;49.448;7.904;2022-08-11T09:33:42;2.65;;;2.10;;
46391;SDS011;32098;49.448;7.904;2022-08-11T09:36:11;2.78;;;2.35;;
46391;SDS011;32098;49.448;7.904;2022-08-11T09:38:59;3.80;;;2.30;;
46391;SDS011;32098;49.448;7.904;2022-08-11T09:41:46;4.63;;;2.33;;
46391;SDS011;32098;49.448;7.904;2022-08-11T09:44:29;2.92;;;2.10;;
46391;SDS011;32098;49.448;7.904;2022-08-11T09:47:27;5.82;;;2.72;;
46391;SDS011;32098;49.448;7.904;2022-08-11T09:49:56;3.15;;;2.47;;
46391;SDS011;32098;49.448;7.904;2022-08-11T09:52:28;4.32;;;2.20;;
46391;SDS011;32098;49.448;7.904;2022-08-11T09:54:57;3.92;;;2.42;;
46391;SDS011;32098;49.448;7.904;2022-08-11T09:57:24;4.43;;;2.28;;
46391;SDS011;32098;49.448;7.904;2022-08-11T10:00:10;5.22;;;2.38;;
46391;SDS011;32098;49.448;7.904;2022-08-11T10:02:41;3.83;;;2.30;;
46391;SDS011;32098;49.448;7.904;2022-08-11T10:05:10;3.20;;;2.20;;
46391;SDS011;32098;49.448;7.904;2022-08-11T10:07:58;3.85;;;2.63;;
46391;SDS011;32098;49.448;7.904;2022-08-11T10:10:26;5.03;;;2.47;;
46391;SDS011;32098;49.448;7.904;2022-08-11T10:12:58;4.30;;;2.30;;
46391;SDS011;32098;49.448;7.904;2022-08-11T10:15:29;3.88;;;2.50;;
46391;SDS011;32098;49.448;7.904;2022-08-11T10:18:02;3.25;;;2.42;;
46391;SDS011;32098;49.448;7.904;2022-08-11T10:20:51;5.38;;;2.60;;
46391;SDS011;32098;49.448;7.904;2022-08-11T10:23:21;4.05;;;2.55;;
46391;SDS011;32098;49.448;7.904;2022-08-11T10:26:28;6.13;;;2.60;;
46391;SDS011;32098;49.448;7.904;2022-08-11T10:29:22;3.90;;;2.50;;
46391;SDS011;32098;49.448;7.904;2022-08-11T10:32:25;4.85;;;2.85;;
46391;SDS011;32098;49.448;7.904;2022-08-11T10:35:25;3.28;;;2.70;;
46391;SDS011;32098;49.448;7.904;2022-08-11T10:37:53;4.35;;;2.50;;
46391;SDS011;32098;49.448;7.904;2022-08-11T10:40:38;4.30;;;2.92;;
46391;SDS011;32098;49.448;7.904;2022-08-11T10:43:06;5.13;;;3.00;;
46391;SDS011;32098;49.448;7.904;2022-08-11T10:46:00;2.90;;;2.60;;
46391;SDS011;32098;49.448;7.904;2022-08-11T10:48:56;4.97;;;2.92;;
46391;SDS011;32098;49.448;7.904;2022-08-11T10:51:24;3.80;;;2.58;;
46391;SDS011;32098;49.448;7.904;2022-08-11T10:54:19;7.85;;;2.83;;
46391;SDS011;32098;49.448;7.904;2022-08-11T10:57:06;3.03;;;2.38;;
46391;SDS011;32098;49.448;7.904;2022-08-11T10:59:53;5.43;;;2.72;;
46391;SDS011;32098;49.448;7.904;2022-08-11T11:02:21;4.47;;;1.98;;
46391;SDS011;32098;49.448;7.904;2022-08-11T11:07:37;2.90;;;2.30;;
46391;SDS011;32098;49.448;7.904;2022-08-11T11:10:09;2.75;;;2.40;;
46391;SDS011;32098;49.448;7.904;2022-08-11T11:12:46;2.72;;;2.45;;
46391;SDS011;32098;49.448;7.904;2022-08-11T11:15:39;4.03;;;2.50;;
46391;SDS011;32098;49.448;7.904;2022-08-11T11:18:27;3.72;;;2.40;;
46391;SDS011;32098;49.448;7.904;2022-08-11T11:21:05;2.97;;;2.45;;
46391;SDS011;32098;49.448;7.904;2022-08-11T11:23:37;6.32;;;2.30;;
46391;SDS011;32098;49.448;7.904;2022-08-11T11:32:15;3.60;;;2.10;;
46391;SDS011;32098;49.448;7.904;2022-08-11T11:37:21;3.72;;;2.17;;
46391;SDS011;32098;49.448;7.904;2022-08-11T11:39:48;1.92;;;1.83;;
46391;SDS011;32098;49.448;7.904;2022-08-11T11:42:16;4.32;;;2.60;;
46391;SDS011;32098;49.448;7.904;2022-08-11T11:44:43;4.18;;;2.25;;
46391;SDS011;32098;49.448;7.904;2022-08-11T11:47:12;3.05;;;2.20;;
46391;SDS011;32098;49.448;7.904;2022-08-11T11:49:41;2.72;;;2.30;;
46391;SDS011;32098;49.448;7.904;2022-08-11T11:52:13;2.55;;;2.22;;
46391;SDS011;32098;49.448;7.904;2022-08-11T11:54:46;2.78;;;2.10;;
46391;SDS011;32098;49.448;7.904;2022-08-11T11:57:16;2.50;;;2.10;;
46391;SDS011;32098;49.448;7.904;2022-08-11T12:00:06;3.85;;;1.98;;
46391;SDS011;32098;49.448;7.904;2022-08-11T12:02:59;2.97;;;2.10;;
46391;SDS011;32098;49.448;7.904;2022-08-11T12:05:28;2.40;;;2.20;;
46391;SDS011;32098;49.448;7.904;2022-08-11T12:07:56;2.75;;;2.10;;
46391;SDS011;32098;49.448;7.904;2022-08-11T12:13:50;3.35;;;2.00;;
46391;SDS011;32098;49.448;7.904;2022-08-11T12:16:19;2.35;;;2.15;;
46391;SDS011;32098;49.448;7.904;2022-08-11T12:19:02;2.35;;;2.15;;
46391;SDS011;32098;49.448;7.904;2022-08-11T12:21:31;3.28;;;2.15;;
46391;SDS011;32098;49.448;7.904;2022-08-11T12:24:01;3.47;;;2.13;;
46391;SDS011;32098;49.448;7.904;2022-08-11T12:26:47;2.42;;;2.22;;
46391;SDS011;32098;49.448;7.904;2022-08-11T12:29:34;2.45;;;2.00;;
46391;SDS011;32098;49.448;7.904;2022-08-11T12:32:06;3.22;;;2.03;;
46391;SDS011;32098;49.448;7.904;2022-08-11T12:34:34;3.50;;;1.92;;
46391;SDS011;32098;49.448;7.904;2022-08-11T12:37:03;3.55;;;2.17;;
46391;SDS011;32098;49.448;7.904;2022-08-11T12:39:40;3.13;;;1.90;;
46391;SDS011;32098;49.448;7.904;2022-08-11T12:42:50;2.20;;;2.00;;
46391;SDS011;32098;49.448;7.904;2022-08-11T12:45:50;2.00;;;1.85;;
46391;SDS011;32098;49.448;7.904;2022-08-11T12:48:25;3.13;;;1.63;;
46391;SDS011;32098;49.448;7.904;2022-08-11T12:51:25;2.67;;;2.10;;
46391;SDS011;32098;49.448;7.904;2022-08-11T12:54:54;2.63;;;2.17;;
46391;SDS011;32098;49.448;7.904;2022-08-11T12:57:40;3.00;;;1.90;;
46391;SDS011;32098;49.448;7.904;2022-08-11T13:00:29;5.05;;;2.30;;
46391;SDS011;32098;49.448;7.904;2022-08-11T13:03:17;2.42;;;2.00;;
46391;SDS011;32098;49.448;7.904;2022-08-11T13:06:04;2.58;;;2.13;;
46391;SDS011;32098;49.448;7.904;2022-08-11T13:08:33;2.90;;;2.10;;
46391;SDS011;32098;49.448;7.904;2022-08-11T13:11:02;2.60;;;2.40;;
46391;SDS011;32098;49.448;7.904;2022-08-11T13:13:48;2.53;;;2.17;;
46391;SDS011;32098;49.448;7.904;2022-08-11T13:16:24;5.10;;;2.38;;
46391;SDS011;32098;49.448;7.904;2022-08-11T13:18:54;2.78;;;2.30;;
46391;SDS011;32098;49.448;7.904;2022-08-11T13:21:22;3.33;;;2.20;;
46391;SDS011;32098;49.448;7.904;2022-08-11T13:23:51;2.40;;;2.20;;
46391;SDS011;32098;49.448;7.904;2022-08-11T13:26:30;2.53;;;2.30;;
46391;SDS011;32098;49.448;7.904;2022-08-11T13:29:15;2.50;;;2.30;;
46391;SDS011;32098;49.448;7.904;2022-08-11T13:31:44;3.67;;;2.20;;
46391;SDS011;32098;49.448;7.904;2022-08-11T13:34:11;2.78;;;2.53;;
46391;SDS011;32098;49.448;7.904;2022-08-11T13:36:39;5.57;;;2.40;;
46391;SDS011;32098;49.448;7.904;2022-08-11T13:39:06;2.95;;;2.50;;
46391;SDS011;32098;49.448;7.904;2022-08-11T13:41:34;3.13;;;2.20;;
46391;SDS011;32098;49.448;7.904;2022-08-11T13:44:07;3.67;;;2.20;;
46391;SDS011;32098;49.448;7.904;2022-08-11T13:46:36;3.28;;;2.28;;
46391;SDS011;32098;49.448;7.904;2022-08-11T13:49:05;3.22;;;2.30;;
46391;SDS011;32098;49.448;7.904;2022-08-11T13:51:36;4.63;;;2.25;;
46391;SDS011;32098;49.448;7.904;2022-08-11T13:54:06;6.72;;;2.70;;
46391;SDS011;32098;49.448;7.904;2022-08-11T13:56:38;4.30;;;2.40;;
46391;SDS011;32098;49.448;7.904;2022-08-11T13:59:07;3.30;;;2.30;;
46391;SDS011;32098;49.448;7.904;2022-08-11T14:01:38;4.30;;;2.35;;
46391;SDS011;32098;49.448;7.904;2022-08-11T14:04:29;3.03;;;2.20;;
46391;SDS011;32098;49.448;7.904;2022-08-11T14:07:02;2.20;;;2.05;;
46391;SDS011;32098;49.448;7.904;2022-08-11T14:09:36;3.28;;;2.30;;
46391;SDS011;32098;49.448;7.904;2022-08-11T14:12:08;4.75;;;2.47;;
46391;SDS011;32098;49.448;7.904;2022-08-11T14:14:59;4.45;;;2.30;;
46391;SDS011;32098;49.448;7.904;2022-08-11T14:17:34;2.75;;;2.28;;
46391;SDS011;32098;49.448;7.904;2022-08-11T14:20:13;2.53;;;2.30;;
46391;SDS011;32098;49.448;7.904;2022-08-11T14:23:03;2.65;;;2.08;;
46391;SDS011;32098;49.448;7.904;2022-08-11T14:25:30;4.40;;;2.65;;
46391;SDS011;32098;49.448;7.904;2022-08-11T14:28:18;2.70;;;2.50;;
46391;SDS011;32098;49.448;7.904;2022-08-11T14:31:00;5.53;;;2.58;;
46391;SDS011;32098;49.448;7.904;2022-08-11T14:33:29;3.00;;;2.70;;
46391;SDS011;32098;49.448;7.904;2022-08-11T14:36:17;5.22;;;2.90;;
46391;SDS011;32098;49.448;7.904;2022-08-11T14:38:45;2.85;;;2.42;;
46391;SDS011;32098;49.448;7.904;2022-08-11T14:41:13;3.78;;;2.53;;
46391;SDS011;32098;49.448;7.904;2022-08-11T14:43:58;3.17;;;2.45;;
46391;SDS011;32098;49.448;7.904;2022-08-11T14:46:44;3.08;;;2.53;;
46391;SDS011;32098;49.448;7.904;2022-08-11T14:49:48;3.90;;;2.38;;
46391;SDS011;32098;49.448;7.904;2022-08-11T14:52:36;3.92;;;2.38;;
46391;SDS011;32098;49.448;7.904;2022-08-11T14:55:04;3.47;;;2.38;;
46391;SDS011;32098;49.448;7.904;2022-08-11T14:57:51;2.78;;;2.58;;
46391;SDS011;32098;49.448;7.904;2022-08-11T15:00:21;3.20;;;2.63;;
46391;SDS011;32098;49.448;7.904;2022-08-11T15:02:48;4.07;;;2.78;;
46391;SDS011;32098;49.448;7.904;2022-08-11T15:05:35;3.72;;;2.50;;
46391;SDS011;32098;49.448;7.904;2022-08-11T15:08:04;3.55;;;2.50;;
46391;SDS011;32098;49.448;7.904;2022-08-11T15:10:32;3.05;;;2.80;;
46391;SDS011;32098;49.448;7.904;2022-08-11T15:12:59;2.75;;;2.42;;
46391;SDS011;32098;49.448;7.904;2022-08-11T15:15:28;2.90;;;2.70;;
46391;SDS011;32098;49.448;7.904;2022-08-11T15:18:14;2.83;;;2.63;;
46391;SDS011;32098;49.448;7.904;2022-08-11T15:20:43;4.50;;;2.83;;
46391;SDS011;32098;49.448;7.904;2022-08-11T15:23:29;2.72;;;2.42;;
46391;SDS011;32098;49.448;7.904;2022-08-11T15:26:27;4.07;;;2.50;;
46391;SDS011;32098;49.448;7.904;2022-08-11T15:29:19;2.63;;;2.40;;
46391;SDS011;32098;49.448;7.904;2022-08-11T15:32:08;4.57;;;2.70;;
46391;SDS011;32098;49.448;7.904;2022-08-11T15:34:59;2.92;;;2.35;;
46391;SDS011;32098;49.448;7.904;2022-08-11T15:37:49;5.35;;;2.55;;
46391;SDS011;32098;49.448;7.904;2022-08-11T15:40:22;3.72;;;2.05;;
46391;SDS011;32098;49.448;7.904;2022-08-11T15:43:20;5.30;;;2.60;;
46391;SDS011;32098;49.448;7.904;2022-08-11T15:46:30;2.58;;;2.38;;
46391;SDS011;32098;49.448;7.904;2022-08-11T15:49:02;5.10;;;2.70;;
46391;SDS011;32098;49.448;7.904;2022-08-11T15:51:40;3.97;;;2.45;;
46391;SDS011;32098;49.448;7.904;2022-08-11T15:54:12;5.15;;;2.60;;
46391;SDS011;32098;49.448;7.904;2022-08-11T15:56:43;5.05;;;2.80;;
46391;SDS011;32098;49.448;7.904;2022-08-11T15:59:17;2.53;;;2.33;;
46391;SDS011;32098;49.448;7.904;2022-08-11T16:02:11;5.75;;;2.28;;
46391;SDS011;32098;49.448;7.904;2022-08-11T16:04:46;3.45;;;2.28;;
46391;SDS011;32098;49.448;7.904;2022-08-11T16:07:15;2.85;;;2.47;;
46391;SDS011;32098;49.448;7.904;2022-08-11T16:09:54;4.82;;;2.60;;
46391;SDS011;32098;49.448;7.904;2022-08-11T16:12:29;5.50;;;2.47;;
46391;SDS011;32098;49.448;7.904;2022-08-11T16:15:01;2.72;;;2.45;;
46391;SDS011;32098;49.448;7.904;2022-08-11T16:17:55;4.95;;;2.60;;
46391;SDS011;32098;49.448;7.904;2022-08-11T16:20:27;3.15;;;2.00;;
46391;SDS011;32098;49.448;7.904;2022-08-11T16:23:02;2.40;;;2.20;;
46391;SDS011;32098;49.448;7.904;2022-08-11T16:25:32;4.15;;;2.30;;
46391;SDS011;32098;49.448;7.904;2022-08-11T16:28:21;4.63;;;2.13;;
46391;SDS011;32098;49.448;7.904;2022-08-11T16:30:48;5.05;;;2.15;;
46391;SDS011;32098;49.448;7.904;2022-08-11T16:33:17;5.22;;;2.10;;
46391;SDS011;32098;49.448;7.904;2022-08-11T16:36:06;3.67;;;2.40;;
46391;SDS011;32098;49.448;7.904;2022-08-11T16:38:53;4.75;;;2.50;;
46391;SDS011;32098;49.448;7.904;2022-08-11T16:41:23;4.70;;;2.45;;
46391;SDS011;32098;49.448;7.904;2022-08-11T16:44:12;5.65;;;2.45;;
46391;SDS011;32098;49.448;7.904;2022-08-11T16:47:04;4.05;;;2.20;;
46391;SDS011;32098;49.448;7.904;2022-08-11T16:49:37;2.80;;;2.15;;
46391;SDS011;32098;49.448;7.904;2022-08-11T16:52:09;2.85;;;2.28;;
46391;SDS011;32098;49.448;7.904;2022-08-11T16:54:39;2.33;;;2.03;;
46391;SDS011;32098;49.448;7.904;2022-08-11T17:00:17;2.55;;;2.25;;
46391;SDS011;32098;49.448;7.904;2022-08-11T17:02:51;3.63;;;2.28;;
46391;SDS011;32098;49.448;7.904;2022-08-11T17:05:42;2.33;;;1.90;;
46391;SDS011;32098;49.448;7.904;2022-08-11T17:08:32;2.53;;;2.13;;
46391;SDS011;32098;49.448;7.904;2022-08-11T17:11:28;3.33;;;2.20;;
46391;SDS011;32098;49.448;7.904;2022-08-11T17:14:21;2.10;;;2.00;;
46391;SDS011;32098;49.448;7.904;2022-08-11T17:17:05;4.00;;;2.15;;
46391;SDS011;32098;49.448;7.904;2022-08-11T17:19:36;4.43;;;2.08;;
46391;SDS011;32098;49.448;7.904;2022-08-11T17:22:29;2.10;;;1.90;;
46391;SDS011;32098;49.448;7.904;2022-08-11T17:25:16;2.28;;;2.08;;
46391;SDS011;32098;49.448;7.904;2022-08-11T17:27:44;3.00;;;2.33;;
46391;SDS011;32098;49.448;7.904;2022-08-11T17:30:12;4.20;;;2.33;;
46391;SDS011;32098;49.448;7.904;2022-08-11T17:32:44;3.78;;;2.10;;
46391;SDS011;32098;49.448;7.904;2022-08-11T17:35:36;2.95;;;2.25;;
46391;SDS011;32098;49.448;7.904;2022-08-11T17:38:07;2.53;;;2.30;;
46391;SDS011;32098;49.448;7.904;2022-08-11T17:40:37;2.50;;;2.00;;
46391;SDS011;32098;49.448;7.904;2022-08-11T17:43:26;2.30;;;2.03;;
46391;SDS011;32098;49.448;7.904;2022-08-11T17:46:14;2.30;;;2.10;;
46391;SDS011;32098;49.448;7.904;2022-08-11T17:49:01;3.10;;;2.10;;
46391;SDS011;32098;49.448;7.904;2022-08-11T17:51:33;3.67;;;2.10;;
46391;SDS011;32098;49.448;7.904;2022-08-11T17:54:20;2.40;;;1.90;;
46391;SDS011;32098;49.448;7.904;2022-08-11T17:57:07;3.55;;;2.13;;
46391;SDS011;32098;49.448;7.904;2022-08-11T17:59:54;2.40;;;2.20;;
46391;SDS011;32098;49.448;7.904;2022-08-11T18:02:33;2.58;;;1.90;;
46391;SDS011;32098;49.448;7.904;2022-08-11T18:05:20;2.95;;;2.40;;
46391;SDS011;32098;49.448;7.904;2022-08-11T18:07:52;9.23;;;2.67;;
46391;SDS011;32098;49.448;7.904;2022-08-11T18:10:39;3.63;;;2.65;;
46391;SDS011;32098;49.448;7.904;2022-08-11T18:13:26;4.97;;;2.47;;
46391;SDS011;32098;49.448;7.904;2022-08-11T18:16:14;4.95;;;2.40;;
46391;SDS011;32098;49.448;7.904;2022-08-11T18:18:59;3.25;;;2.38;;
46391;SDS011;32098;49.448;7.904;2022-08-11T18:21:46;4.63;;;2.47;;
46391;SDS011;32098;49.448;7.904;2022-08-11T18:24:50;2.72;;;2.30;;
46391;SDS011;32098;49.448;7.904;2022-08-11T18:27:43;4.28;;;2.22;;
46391;SDS011;32098;49.448;7.904;2022-08-11T18:30:32;2.60;;;2.40;;
46391;SDS011;32098;49.448;7.904;2022-08-11T18:33:32;4.13;;;2.30;;
46391;SDS011;32098;49.448;7.904;2022-08-11T18:37:19;3.30;;;2.33;;
46391;SDS011;32098;49.448;7.904;2022-08-11T18:40:05;2.80;;;2.25;;
46391;SDS011;32098;49.448;7.904;2022-08-11T18:42:56;3.13;;;2.80;;
46391;SDS011;32098;49.448;7.904;2022-08-11T18:45:52;5.70;;;3.00;;
46391;SDS011;32098;49.448;7.904;2022-08-11T18:48:46;2.88;;;2.53;;
46391;SDS011;32098;49.448;7.904;2022-08-11T18:51:40;3.42;;;2.60;;
46391;SDS011;32098;49.448;7.904;2022-08-11T18:54:27;3.58;;;2.45;;
46391;SDS011;32098;49.448;7.904;2022-08-11T18:57:18;3.05;;;2.35;;
46391;SDS011;32098;49.448;7.904;2022-08-11T19:00:20;3.08;;;2.10;;
46391;SDS011;32098;49.448;7.904;2022-08-11T19:03:07;3.28;;;2.47;;
46391;SDS011;32098;49.448;7.904;2022-08-11T19:05:56;2.97;;;2.25;;
46391;SDS011;32098;49.448;7.904;2022-08-11T19:09:04;3.00;;;2.22;;
46391;SDS011;32098;49.448;7.904;2022-08-11T19:11:51;2.50;;;2.30;;
46391;SDS011;32098;49.448;7.904;2022-08-11T19:14:38;2.85;;;2.53;;
46391;SDS011;32098;49.448;7.904;2022-08-11T19:17:25;3.33;;;2.50;;
46391;SDS011;32098;49.448;7.904;2022-08-11T19:20:14;2.65;;;2.42;;
46391;SDS011;32098;49.448;7.904;2022-08-11T19:23:02;3.25;;;2.70;;
46391;SDS011;32098;49.448;7.904;2022-08-11T19:25:49;3.90;;;2.70;;
46391;SDS011;32098;49.448;7.904;2022-08-11T19:28:34;4.03;;;2.80;;
46391;SDS011;32098;49.448;7.904;2022-08-11T19:31:22;2.85;;;2.65;;
46391;SDS011;32098;49.448;7.904;2022-08-11T19:34:12;4.50;;;2.75;;
46391;SDS011;32098;49.448;7.904;2022-08-11T19:37:00;3.97;;;2.40;;
46391;SDS011;32098;49.448;7.904;2022-08-11T19:39:54;3.95;;;2.40;;
46391;SDS011;32098;49.448;7.904;2022-08-11T19:42:43;3.45;;;2.50;;
46391;SDS011;32098;49.448;7.904;2022-08-11T19:45:50;3.67;;;2.60;;
46391;SDS011;32098;49.448;7.904;2022-08-11T19:48:37;5.65;;;2.90;;
46391;SDS011;32098;49.448;7.904;2022-08-11T19:51:24;5.35;;;2.45;;
46391;SDS011;32098;49.448;7.904;2022-08-11T19:54:10;4.10;;;2.75;;